Aviation Digital Data Service (ADDS)

Output produced by METARs form (1005 UTC 14 February 2016)
found at http://aviationweather.gov/adds/metars/
 
KILM 140520Z 1406/1506 01008KT P6SM SKC 
     FM141400 03011KT P6SM FEW120 SCT250 
     FM142100 06007KT P6SM SCT050 BKN200 
     FM150400 05004KT P6SM BKN050 OVC100